Time;durP1;ratioP1;P1;durP2;ratioP2;P2;SDS_P1;SDS_P2;PMS_P1;PMS_P2;Temp;Humidity;BMP_temperature;BMP_pressure;BME280_temperature;BME280_humidity;BME280_pressure;Samples;Min_cycle;Max_cycle;Signal;HPM_P1;HPM_P2
2023/03/03 00:00:57;;;;;;;2.97;0.70;;;3.30;99.90;;;;;;4964827;28;20079;-83
2023/03/03 00:03:28;;;;;;;4.22;0.65;;;3.30;99.90;;;;;;4953412;28;20493;-82
2023/03/03 00:05:55;;;;;;;1.45;0.70;;;3.30;99.90;;;;;;4953459;28;20103;-82
2023/03/03 00:08:22;;;;;;;5.18;1.17;;;3.40;99.90;;;;;;4952562;28;20138;-83
2023/03/03 00:10:49;;;;;;;1.70;0.70;;;3.40;99.90;;;;;;4955557;28;20707;-85
2023/03/03 00:13:20;;;;;;;3.65;1.90;;;3.40;99.90;;;;;;4954124;28;20058;-85
2023/03/03 00:15:47;;;;;;;2.63;1.20;;;3.40;99.90;;;;;;4937002;28;20059;-83
2023/03/03 00:18:21;;;;;;;4.38;1.00;;;3.40;99.90;;;;;;4954662;28;20081;-82
2023/03/03 00:20:52;;;;;;;2.50;0.90;;;3.40;99.90;;;;;;4953340;28;20058;-83
2023/03/03 00:23:37;;;;;;;11.85;1.30;;;3.50;99.90;;;;;;4952897;28;21127;-82
2023/03/03 00:26:37;;;;;;;4.60;0.70;;;3.50;99.90;;;;;;4950699;28;20565;-83
2023/03/03 00:29:29;;;;;;;5.97;1.27;;;3.40;99.90;;;;;;4951636;28;20526;-83
2023/03/03 00:32:23;;;;;;;4.35;0.70;;;3.40;99.90;;;;;;4951208;28;20050;-83
2023/03/03 00:34:51;;;;;;;2.10;0.70;;;3.40;99.90;;;;;;4953989;28;20480;-82
2023/03/03 00:37:33;;;;;;;1.52;0.50;;;3.40;99.90;;;;;;4953453;28;20058;-83
2023/03/03 00:40:17;;;;;;;5.68;0.68;;;3.40;99.90;;;;;;4951674;28;20078;-83
2023/03/03 00:42:54;;;;;;;5.75;1.00;;;3.40;99.90;;;;;;4952331;28;20070;-83
2023/03/03 00:45:26;;;;;;;5.65;1.10;;;3.40;99.90;;;;;;4951872;28;20133;-82
2023/03/03 00:47:53;;;;;;;6.78;2.00;;;3.40;99.90;;;;;;4951395;28;20051;-83
2023/03/03 00:50:33;;;;;;;3.63;0.80;;;3.40;99.90;;;;;;4951776;28;20728;-83
2023/03/03 00:53:06;;;;;;;5.32;0.98;;;3.40;99.90;;;;;;4954791;28;20042;-85
2023/03/03 00:55:34;;;;;;;2.83;1.05;;;3.40;99.90;;;;;;4954248;28;20066;-83
2023/03/03 00:58:01;;;;;;;6.45;1.05;;;3.40;99.90;;;;;;4950099;28;20130;-82
2023/03/03 01:00:34;;;;;;;2.22;1.05;;;3.40;99.90;;;;;;4954517;28;20100;-83
2023/03/03 01:03:08;;;;;;;2.85;0.70;;;3.40;99.90;;;;;;4954584;28;20043;-82
2023/03/03 01:05:35;;;;;;;4.90;0.77;;;3.40;99.90;;;;;;4952563;28;21204;-80
2023/03/03 01:08:03;;;;;;;4.57;1.33;;;3.40;99.90;;;;;;4952851;28;20061;-83
2023/03/03 01:10:33;;;;;;;3.15;0.82;;;3.40;99.90;;;;;;4951098;28;20051;-85
2023/03/03 01:13:00;;;;;;;1.83;0.75;;;3.40;99.90;;;;;;4954825;28;20109;-82
2023/03/03 01:15:27;;;;;;;5.32;1.13;;;3.50;99.90;;;;;;4953541;28;20054;-82
2023/03/03 01:17:54;;;;;;;5.20;1.48;;;3.50;99.90;;;;;;4954075;28;20516;-83
2023/03/03 01:20:22;;;;;;;3.78;2.72;;;3.50;99.90;;;;;;4959715;28;20094;-84
2023/03/03 01:22:49;;;;;;;4.72;0.90;;;3.50;99.90;;;;;;4955498;28;20058;-83
2023/03/03 01:25:16;;;;;;;4.60;1.00;;;3.40;99.90;;;;;;4964405;28;20061;-83
2023/03/03 01:27:43;;;;;;;5.45;1.30;;;3.40;99.90;;;;;;4957886;28;20070;-82
2023/03/03 01:30:10;;;;;;;2.90;1.00;;;3.40;99.90;;;;;;4971940;23;20047;-66
2023/03/03 01:32:37;;;;;;;5.30;1.25;;;3.40;99.90;;;;;;4958649;28;20078;-67
2023/03/03 01:35:05;;;;;;;6.38;1.70;;;3.40;99.90;;;;;;4959906;28;20068;-66
2023/03/03 01:37:34;;;;;;;1.50;0.90;;;3.40;99.90;;;;;;4959394;28;20061;-67
2023/03/03 01:40:03;;;;;;;3.95;1.02;;;3.40;99.90;;;;;;4958723;28;20054;-68
2023/03/03 01:42:30;;;;;;;3.83;1.50;;;3.40;99.90;;;;;;4959504;28;20713;-67
2023/03/03 01:45:20;;;;;;;1.50;1.20;;;3.40;99.90;;;;;;4958916;28;20429;-67
2023/03/03 01:47:56;;;;;;;6.03;1.70;;;3.40;99.90;;;;;;4959004;28;20059;-68
2023/03/03 01:50:47;;;;;;;9.38;1.58;;;3.40;99.90;;;;;;4958558;28;20057;-67
2023/03/03 01:53:41;;;;;;;5.30;1.17;;;3.30;99.90;;;;;;4960059;28;20050;-69
2023/03/03 01:56:08;;;;;;;7.68;0.73;;;3.30;99.90;;;;;;4988712;28;21314;-67
2023/03/03 01:58:42;;;;;;;4.53;1.55;;;3.30;99.90;;;;;;4958101;28;20194;-67
2023/03/03 02:01:20;;;;;;;2.83;0.60;;;3.20;99.90;;;;;;4990226;28;20054;-68
2023/03/03 02:03:48;;;;;;;4.95;1.52;;;3.20;99.90;;;;;;4957674;28;20072;-69
2023/03/03 02:06:18;;;;;;;3.10;1.30;;;3.20;99.90;;;;;;4959273;28;20176;-68
2023/03/03 02:09:01;;;;;;;4.88;0.82;;;3.20;99.90;;;;;;4958545;28;20051;-67
2023/03/03 02:11:31;;;;;;;2.08;0.50;;;3.30;99.90;;;;;;4958168;28;20054;-67
2023/03/03 02:13:58;;;;;;;3.45;1.55;;;3.30;99.90;;;;;;4989304;28;20050;-68
2023/03/03 02:16:25;;;;;;;5.05;1.05;;;3.30;99.90;;;;;;4959939;28;20130;-67
2023/03/03 02:18:52;;;;;;;8.02;0.90;;;3.30;99.90;;;;;;4959533;28;20081;-68
2023/03/03 02:21:22;;;;;;;4.38;0.93;;;3.30;99.90;;;;;;4990418;28;20050;-66
2023/03/03 02:23:55;;;;;;;4.57;1.40;;;3.40;99.90;;;;;;4957209;28;20051;-68
2023/03/03 02:26:24;;;;;;;5.15;1.30;;;3.40;99.90;;;;;;4957692;28;20137;-68
2023/03/03 02:28:57;;;;;;;7.32;1.67;;;3.40;99.90;;;;;;4994833;28;20102;-67
2023/03/03 02:31:26;;;;;;;4.07;1.10;;;3.40;99.90;;;;;;4993925;28;20074;-67
2023/03/03 02:33:54;;;;;;;4.55;1.00;;;3.40;99.90;;;;;;4960184;28;20055;-67
2023/03/03 02:36:27;;;;;;;2.92;1.00;;;3.30;99.90;;;;;;4961442;28;20129;-70
2023/03/03 02:39:12;;;;;;;2.95;1.02;;;3.30;99.90;;;;;;4960823;28;20511;-69
2023/03/03 02:41:52;;;;;;;5.88;0.82;;;3.30;99.90;;;;;;4959406;28;20141;-68
2023/03/03 02:44:22;;;;;;;4.20;1.23;;;3.30;99.90;;;;;;4960530;28;20059;-67
2023/03/03 02:46:51;;;;;;;3.20;0.95;;;3.30;99.90;;;;;;4958373;28;20061;-69
2023/03/03 02:49:23;;;;;;;3.75;1.02;;;3.40;99.90;;;;;;4994341;28;20055;-68
2023/03/03 02:51:51;;;;;;;8.25;1.52;;;3.30;99.90;;;;;;4960384;28;20464;-68
2023/03/03 02:54:20;;;;;;;2.83;0.82;;;3.40;99.90;;;;;;4961728;28;20058;-68
2023/03/03 02:56:47;;;;;;;6.47;1.33;;;3.40;99.90;;;;;;4960876;28;20070;-68
2023/03/03 02:59:15;;;;;;;2.22;0.80;;;3.40;99.90;;;;;;4962313;28;21107;-67
2023/03/03 03:01:46;;;;;;;5.85;1.10;;;3.40;99.90;;;;;;4959760;28;20054;-68
2023/03/03 03:04:21;;;;;;;7.70;1.50;;;3.40;99.90;;;;;;4961006;28;20421;-67
2023/03/03 03:06:50;;;;;;;5.35;1.35;;;3.40;99.90;;;;;;4962042;28;20153;-69
2023/03/03 03:09:19;;;;;;;3.17;0.95;;;3.40;99.90;;;;;;4962175;28;20134;-68
2023/03/03 03:11:48;;;;;;;7.60;1.70;;;3.30;99.90;;;;;;4958860;28;20055;-70
2023/03/03 03:14:19;;;;;;;2.78;0.80;;;3.30;99.90;;;;;;4961936;28;20416;-68
2023/03/03 03:16:46;;;;;;;3.75;1.08;;;3.30;99.90;;;;;;4961591;28;20055;-67
2023/03/03 03:19:13;;;;;;;4.63;0.88;;;3.30;99.90;;;;;;4961147;28;21425;-67
2023/03/03 03:21:41;;;;;;;1.58;1.10;;;3.30;99.90;;;;;;4958197;28;20417;-68
2023/03/03 03:24:09;;;;;;;5.78;1.30;;;3.30;99.90;;;;;;4992673;28;20142;-69
2023/03/03 03:26:40;;;;;;;10.38;2.22;;;3.30;99.90;;;;;;4960389;28;20065;-67
2023/03/03 03:29:08;;;;;;;3.70;0.98;;;3.30;99.90;;;;;;4960867;28;20043;-67
2023/03/03 03:31:35;;;;;;;4.40;0.90;;;3.30;99.90;;;;;;4958576;28;20074;-67
2023/03/03 03:34:02;;;;;;;5.05;1.45;;;3.30;99.90;;;;;;4960828;28;20540;-70
2023/03/03 03:36:30;;;;;;;7.15;0.95;;;3.30;99.90;;;;;;4976098;28;20148;-67
2023/03/03 03:38:56;;;;;;;4.45;1.10;;;3.30;99.90;;;;;;4961087;28;20504;-69
2023/03/03 03:41:24;;;;;;;3.95;1.17;;;3.30;99.90;;;;;;4976692;28;20146;-70
2023/03/03 03:43:51;;;;;;;3.70;1.10;;;3.30;99.90;;;;;;4959001;28;20051;-66
2023/03/03 03:46:18;;;;;;;5.15;1.13;;;3.30;99.90;;;;;;4961520;28;20165;-69
2023/03/03 03:48:45;;;;;;;6.88;1.20;;;3.30;99.90;;;;;;4959410;28;20082;-68
2023/03/03 03:51:14;;;;;;;8.10;1.37;;;3.30;99.90;;;;;;4960031;28;20057;-68
2023/03/03 03:53:41;;;;;;;6.80;0.95;;;3.40;99.90;;;;;;4956173;28;20089;-67
2023/03/03 03:56:08;;;;;;;17.20;2.53;;;3.40;99.90;;;;;;4959623;28;20059;-67
2023/03/03 03:58:35;;;;;;;4.03;1.10;;;3.40;99.90;;;;;;4960765;28;20043;-67
2023/03/03 04:01:07;;;;;;;2.33;0.60;;;3.40;99.90;;;;;;4960325;28;20493;-71
2023/03/03 04:03:39;;;;;;;5.65;1.42;;;3.40;99.90;;;;;;4958585;28;20062;-67
2023/03/03 04:06:10;;;;;;;;;;;3.40;99.90;;;;;;4960256;28;20129;-70
2023/03/03 04:08:37;;;;;;;5.72;1.35;;;3.40;99.90;;;;;;4960825;28;19925;-68
2023/03/03 04:11:04;;;;;;;6.13;1.50;;;3.40;99.90;;;;;;4960638;28;20062;-65
2023/03/03 04:13:33;;;;;;;8.63;1.20;;;3.40;99.90;;;;;;4961415;28;20098;-69
2023/03/03 04:16:03;;;;;;;4.82;1.50;;;3.40;99.90;;;;;;4958574;28;20058;-71
2023/03/03 04:18:31;;;;;;;3.35;0.95;;;3.40;99.90;;;;;;4960580;28;20416;-68
2023/03/03 04:20:58;;;;;;;15.60;3.40;;;3.30;99.90;;;;;;4960387;28;20396;-68
2023/03/03 04:23:26;;;;;;;7.60;1.80;;;3.30;99.90;;;;;;4992042;28;20056;-69
2023/03/03 04:25:53;;;;;;;7.90;1.85;;;3.30;99.90;;;;;;4958905;28;20066;-67
2023/03/03 04:28:23;;;;;;;4.35;1.38;;;3.40;99.90;;;;;;4991528;28;20074;-68
2023/03/03 04:30:51;;;;;;;8.73;1.42;;;3.30;99.90;;;;;;4975873;28;20093;-67
2023/03/03 04:33:20;;;;;;;11.80;1.45;;;3.30;99.90;;;;;;4959952;28;20507;-68
2023/03/03 04:35:48;;;;;;;2.08;0.90;;;3.30;99.90;;;;;;4942341;28;20058;-67
2023/03/03 04:38:15;;;;;;;3.90;1.65;;;3.30;99.90;;;;;;4959359;28;20059;-70
2023/03/03 04:40:42;;;;;;;5.95;1.40;;;3.30;99.90;;;;;;4975794;28;20078;-67
2023/03/03 04:43:12;;;;;;;9.77;1.30;;;3.30;99.90;;;;;;4958770;28;20062;-68
2023/03/03 04:45:39;;;;;;;5.55;2.03;;;3.30;99.90;;;;;;4956488;28;20055;-71
2023/03/03 04:48:07;;;;;;;5.50;1.30;;;3.30;99.90;;;;;;4955407;28;20055;-69
2023/03/03 04:50:34;;;;;;;7.30;2.20;;;3.20;99.90;;;;;;4957591;28;20093;-70
2023/03/03 04:53:03;;;;;;;7.03;1.73;;;3.20;99.90;;;;;;4959011;28;20050;-69
2023/03/03 04:55:30;;;;;;;6.03;1.23;;;3.20;99.90;;;;;;4959599;28;20058;-68
2023/03/03 04:57:57;;;;;;;6.78;1.48;;;3.20;99.90;;;;;;4988378;28;20134;-67
2023/03/03 05:00:24;;;;;;;5.53;2.17;;;3.20;99.90;;;;;;4958905;28;20043;-70
2023/03/03 05:02:51;;;;;;;9.20;2.50;;;3.20;99.90;;;;;;4959315;28;20050;-67
2023/03/03 05:05:18;;;;;;;10.30;1.40;;;3.10;99.90;;;;;;4958954;28;20497;-68
2023/03/03 05:07:45;;;;;;;8.27;1.98;;;3.20;99.90;;;;;;4959146;28;20055;-69
2023/03/03 05:10:12;;;;;;;12.25;1.25;;;3.10;99.90;;;;;;4960652;28;20080;-66
2023/03/03 05:12:39;;;;;;;15.90;3.00;;;3.10;99.90;;;;;;4960139;28;20081;-69
2023/03/03 05:15:06;;;;;;;7.35;2.35;;;3.10;99.90;;;;;;4959905;28;20162;-69
2023/03/03 05:17:33;;;;;;;8.75;1.80;;;3.10;99.90;;;;;;4959556;28;20047;-68
2023/03/03 05:20:00;;;;;;;21.25;3.67;;;3.10;99.90;;;;;;4959034;28;20051;-67
2023/03/03 05:22:27;;;;;;;10.70;2.08;;;3.00;99.90;;;;;;4959395;28;20092;-69
2023/03/03 05:24:54;;;;;;;10.85;3.05;;;3.00;99.90;;;;;;4961805;28;20050;-67
2023/03/03 05:27:21;;;;;;;8.05;1.30;;;3.00;99.90;;;;;;4959695;28;20065;-67
2023/03/03 05:29:48;;;;;;;9.75;2.22;;;3.10;99.90;;;;;;4958743;28;20150;-69
2023/03/03 05:32:15;;;;;;;5.93;2.20;;;3.00;99.90;;;;;;4958737;28;20061;-67
2023/03/03 05:34:42;;;;;;;6.65;1.90;;;3.00;99.90;;;;;;4957968;28;20504;-66
2023/03/03 05:37:09;;;;;;;12.02;2.08;;;3.10;99.90;;;;;;4960156;28;20409;-70
2023/03/03 05:39:36;;;;;;;4.53;0.85;;;3.10;99.90;;;;;;4955454;28;20748;-66
2023/03/03 05:42:03;;;;;;;3.65;1.67;;;3.10;99.90;;;;;;4958346;28;20050;-68
2023/03/03 05:44:30;;;;;;;19.00;2.55;;;3.00;99.90;;;;;;4959252;28;20142;-67
2023/03/03 05:46:57;;;;;;;5.93;1.20;;;3.00;99.90;;;;;;4958930;28;20050;-69
2023/03/03 05:49:25;;;;;;;7.20;1.35;;;3.00;99.90;;;;;;4958905;28;20053;-67
2023/03/03 05:51:52;;;;;;;12.27;1.75;;;3.00;99.90;;;;;;4958124;28;20046;-68
2023/03/03 05:54:19;;;;;;;12.63;2.38;;;3.00;99.90;;;;;;4959277;28;20058;-68
2023/03/03 05:56:46;;;;;;;6.63;1.23;;;3.00;99.90;;;;;;4960162;28;20050;-67
2023/03/03 05:59:12;;;;;;;13.40;2.33;;;3.00;99.90;;;;;;4959231;28;20057;-69
2023/03/03 06:01:39;;;;;;;5.50;0.93;;;3.00;99.90;;;;;;4958899;28;20058;-69
2023/03/03 06:04:07;;;;;;;4.85;1.10;;;3.00;99.90;;;;;;4962860;28;20055;-67
2023/03/03 06:06:34;;;;;;;6.72;1.45;;;3.00;99.90;;;;;;4964251;28;20058;-69
2023/03/03 06:09:01;;;;;;;11.15;1.20;;;3.00;99.90;;;;;;4963135;28;20082;-65
2023/03/03 06:11:28;;;;;;;6.95;1.40;;;3.00;99.90;;;;;;4963002;28;20054;-65
2023/03/03 06:13:55;;;;;;;3.97;1.50;;;3.00;99.90;;;;;;4961909;28;20054;-66
2023/03/03 06:16:21;;;;;;;8.50;2.10;;;3.00;99.90;;;;;;4962504;28;20614;-64
2023/03/03 06:18:48;;;;;;;5.07;1.83;;;3.00;99.90;;;;;;4963598;28;20050;-65
2023/03/03 06:21:15;;;;;;;9.70;2.83;;;3.00;99.90;;;;;;4963761;28;20057;-67
2023/03/03 06:23:42;;;;;;;11.25;2.38;;;3.00;99.90;;;;;;4961639;28;20058;-67
2023/03/03 06:26:09;;;;;;;5.78;1.45;;;3.00;99.90;;;;;;4962082;28;20050;-66
2023/03/03 06:28:36;;;;;;;9.98;2.38;;;3.00;99.90;;;;;;4963995;28;20098;-68
2023/03/03 06:31:03;;;;;;;11.05;1.60;;;3.10;99.90;;;;;;4962316;28;20408;-69
2023/03/03 06:33:30;;;;;;;7.35;1.25;;;3.10;99.90;;;;;;4960796;28;20207;-69
2023/03/03 06:35:57;;;;;;;13.98;1.88;;;3.10;99.90;;;;;;4960785;28;20172;-69
2023/03/03 06:38:24;;;;;;;8.77;1.58;;;3.10;99.90;;;;;;4962944;28;20055;-65
2023/03/03 06:40:51;;;;;;;13.23;1.77;;;3.20;99.90;;;;;;4962719;28;20858;-66
2023/03/03 06:43:18;;;;;;;7.43;2.33;;;3.20;99.90;;;;;;4962682;28;20050;-66
2023/03/03 06:45:45;;;;;;;5.85;2.40;;;3.20;99.90;;;;;;4961123;28;20251;-68
2023/03/03 06:48:12;;;;;;;27.85;4.38;;;3.20;99.90;;;;;;4962697;28;20058;-67
2023/03/03 06:50:39;;;;;;;8.73;2.17;;;3.20;99.90;;;;;;4962098;28;20053;-67
2023/03/03 06:53:14;;;;;;;17.77;2.47;;;3.20;99.90;;;;;;4963362;28;20525;-65
2023/03/03 06:55:43;;;;;;;10.68;2.17;;;3.20;99.90;;;;;;4959809;28;20054;-67
2023/03/03 06:58:13;;;;;;;12.48;2.17;;;3.20;99.90;;;;;;4962385;28;20073;-67
2023/03/03 07:01:00;;;;;;;15.32;1.42;;;3.20;99.90;;;;;;4963761;28;20623;-68
2023/03/03 07:03:33;;;;;;;22.02;4.90;;;3.20;99.90;;;;;;4962809;28;20047;-65
2023/03/03 07:06:04;;;;;;;12.00;1.65;;;3.20;99.90;;;;;;4959774;28;20065;-67
2023/03/03 07:08:32;;;;;;;16.35;1.92;;;3.20;99.90;;;;;;4962647;28;20385;-66
2023/03/03 07:11:06;;;;;;;13.25;1.95;;;3.20;99.90;;;;;;4962642;28;20052;-67
2023/03/03 07:13:39;;;;;;;17.05;1.60;;;3.20;99.90;;;;;;4962345;28;20054;-66
2023/03/03 07:16:11;;;;;;;9.82;2.15;;;3.20;99.90;;;;;;4960966;28;20695;-66
2023/03/03 07:19:00;;;;;;;7.95;2.38;;;3.30;99.90;;;;;;4962148;28;20102;-67
2023/03/03 07:21:31;;;;;;;11.15;1.80;;;3.20;99.90;;;;;;4963360;28;20056;-66
2023/03/03 07:24:00;;;;;;;24.38;2.47;;;3.30;99.90;;;;;;4958747;28;20046;-68
2023/03/03 07:26:31;;;;;;;11.60;2.78;;;3.30;99.90;;;;;;4961380;28;20046;-65
2023/03/03 07:29:24;;;;;;;13.40;2.72;;;3.40;99.90;;;;;;4962660;28;20050;-66
2023/03/03 07:31:53;;;;;;;13.43;1.67;;;3.40;99.90;;;;;;4960733;28;20578;-69
2023/03/03 07:34:23;;;;;;;9.88;1.40;;;3.40;99.90;;;;;;4962637;28;20050;-67
2023/03/03 07:36:53;;;;;;;6.20;1.30;;;3.40;99.90;;;;;;4962385;28;20054;-67
2023/03/03 07:39:31;;;;;;;15.63;1.70;;;3.50;99.90;;;;;;4962034;28;20477;-68
2023/03/03 07:42:13;;;;;;;23.58;4.05;;;3.50;99.90;;;;;;4960540;28;20065;-66
2023/03/03 07:44:40;;;;;;;11.27;2.45;;;3.50;99.90;;;;;;4961932;28;20421;-67
2023/03/03 07:47:22;;;;;;;11.32;3.03;;;3.50;99.90;;;;;;4961195;28;20072;-68
2023/03/03 07:49:51;;;;;;;17.10;3.03;;;3.60;99.90;;;;;;4959953;28;20125;-65
2023/03/03 07:52:41;;;;;;;9.45;1.67;;;3.60;99.90;;;;;;4961588;28;20073;-68
2023/03/03 07:55:35;;;;;;;8.57;2.10;;;3.60;99.90;;;;;;4961788;28;20051;-67
2023/03/03 07:58:15;;;;;;;14.23;3.05;;;3.50;99.90;;;;;;4960024;28;20141;-69
2023/03/03 08:00:42;;;;;;;11.93;2.38;;;3.50;99.90;;;;;;4963061;28;20907;-67
2023/03/03 08:03:16;;;;;;;8.82;1.40;;;3.50;99.90;;;;;;4961825;28;20470;-67
2023/03/03 08:05:46;;;;;;;8.85;2.25;;;3.50;99.90;;;;;;4959272;28;20046;-66
2023/03/03 08:08:41;;;;;;;6.97;1.57;;;3.50;99.90;;;;;;4961116;28;20062;-69
2023/03/03 08:11:08;;;;;;;9.38;2.75;;;3.50;99.90;;;;;;4962271;28;20043;-70
2023/03/03 08:13:41;;;;;;;6.30;1.60;;;3.60;99.90;;;;;;4961020;28;20054;-67
2023/03/03 08:16:08;;;;;;;20.58;2.50;;;3.60;99.90;;;;;;4961440;28;20150;-66
2023/03/03 08:18:46;;;;;;;13.60;3.60;;;3.60;99.90;;;;;;4961627;28;20351;-70
2023/03/03 08:21:18;;;;;;;20.88;3.80;;;3.60;99.90;;;;;;4960735;28;20105;-70
2023/03/03 08:23:48;;;;;;;8.20;2.15;;;3.60;99.90;;;;;;4959005;28;20070;-70
2023/03/03 08:26:15;;;;;;;33.55;3.97;;;3.70;99.90;;;;;;4960051;28;20549;-68
2023/03/03 08:28:42;;;;;;;10.30;2.15;;;3.60;99.90;;;;;;4961062;28;20073;-67
2023/03/03 08:31:10;;;;;;;7.72;3.30;;;3.70;99.90;;;;;;4960997;28;20081;-68
2023/03/03 08:33:53;;;;;;;6.85;3.15;;;3.80;99.90;;;;;;4957649;28;20452;-70
2023/03/03 08:36:21;;;;;;;6.28;1.60;;;3.80;99.90;;;;;;4959618;28;20051;-69
2023/03/03 08:38:47;;;;;;;16.73;2.10;;;3.80;99.90;;;;;;4960402;28;20047;-67
2023/03/03 08:41:14;;;;;;;15.68;2.03;;;3.80;99.90;;;;;;4960914;28;20054;-66
2023/03/03 08:43:44;;;;;;;11.23;1.40;;;3.80;99.90;;;;;;4959765;28;20065;-68
2023/03/03 08:46:11;;;;;;;11.98;2.38;;;3.80;99.90;;;;;;4961759;28;20054;-70
2023/03/03 08:48:38;;;;;;;29.88;5.03;;;3.80;99.90;;;;;;4960715;28;20417;-67
2023/03/03 08:51:05;;;;;;;21.13;2.95;;;3.90;99.90;;;;;;4961352;28;20050;-67
2023/03/03 08:53:35;;;;;;;11.35;1.77;;;3.90;99.90;;;;;;4961095;28;20124;-66
2023/03/03 08:56:03;;;;;;;8.32;1.73;;;3.90;99.90;;;;;;4959714;28;20051;-66
2023/03/03 08:58:30;;;;;;;8.48;2.00;;;4.00;99.90;;;;;;4959590;28;20057;-69
2023/03/03 09:01:01;;;;;;;8.55;2.80;;;4.00;99.90;;;;;;4961302;28;20472;-70
2023/03/03 09:03:28;;;;;;;11.98;2.25;;;4.00;99.90;;;;;;4960821;28;20038;-68
2023/03/03 09:05:55;;;;;;;13.82;1.85;;;4.00;99.90;;;;;;4959123;28;20081;-67
2023/03/03 09:08:22;;;;;;;5.25;1.50;;;4.10;99.90;;;;;;4959851;28;20076;-68
2023/03/03 09:10:49;;;;;;;7.55;1.73;;;4.00;99.90;;;;;;4962003;28;20046;-69
2023/03/03 09:13:18;;;;;;;32.90;5.88;;;4.00;99.90;;;;;;4959947;28;20050;-66
2023/03/03 09:15:45;;;;;;;10.00;1.90;;;3.90;99.90;;;;;;4959441;28;20114;-69
2023/03/03 09:18:14;;;;;;;8.27;2.95;;;3.90;99.90;;;;;;4959107;28;20418;-67
2023/03/03 09:20:42;;;;;;;13.18;2.33;;;4.00;99.90;;;;;;4960590;28;20070;-67
2023/03/03 09:23:32;;;;;;;10.02;2.25;;;4.00;99.90;;;;;;4960291;28;20054;-67
2023/03/03 09:26:25;;;;;;;11.95;1.60;;;4.00;99.90;;;;;;4958328;28;20061;-67
2023/03/03 09:28:54;;;;;;;11.88;2.08;;;4.00;99.90;;;;;;4951796;28;20057;-67
2023/03/03 09:31:25;;;;;;;4.45;1.38;;;4.00;99.90;;;;;;4959792;28;20054;-67
2023/03/03 09:33:56;;;;;;;7.90;3.50;;;4.00;99.90;;;;;;4959160;28;20109;-67
2023/03/03 09:36:36;;;;;;;7.55;2.28;;;4.00;99.90;;;;;;4959440;28;20555;-70
2023/03/03 09:39:35;;;;;;;12.00;2.45;;;4.10;99.90;;;;;;4959697;28;20054;-67
2023/03/03 09:42:41;;;;;;;14.02;1.77;;;4.00;99.90;;;;;;4947400;28;20042;-69
2023/03/03 09:45:37;;;;;;;17.77;2.75;;;4.10;99.90;;;;;;4961086;28;20133;-68
2023/03/03 09:48:23;;;;;;;14.15;2.22;;;4.10;99.90;;;;;;4884566;28;20057;-67
2023/03/03 09:51:17;;;;;;;24.55;2.53;;;4.10;99.90;;;;;;4960556;28;20162;-69
2023/03/03 09:54:02;;;;;;;15.90;4.35;;;4.00;99.90;;;;;;4958742;28;20101;-68
2023/03/03 09:56:34;;;;;;;11.05;3.03;;;4.10;99.90;;;;;;4960594;28;20058;-67
2023/03/03 09:59:28;;;;;;;9.30;2.35;;;4.10;99.90;;;;;;4961267;28;20060;-67
2023/03/03 10:02:15;;;;;;;28.88;5.22;;;4.10;99.90;;;;;;4959135;28;20141;-66
2023/03/03 10:04:51;;;;;;;13.38;2.47;;;4.10;99.90;;;;;;4960625;28;20053;-66
2023/03/03 10:07:47;;;;;;;8.32;2.72;;;4.10;99.90;;;;;;4959288;28;20069;-68
2023/03/03 10:10:33;;;;;;;12.13;3.28;;;4.20;99.90;;;;;;4947042;28;20493;-68
2023/03/03 10:13:20;;;;;;;15.32;3.03;;;4.20;99.90;;;;;;4960871;28;20050;-68
2023/03/03 10:16:07;;;;;;;14.15;2.25;;;4.10;99.90;;;;;;4957842;28;20137;-66
2023/03/03 10:19:03;;;;;;;14.40;2.78;;;4.20;99.90;;;;;;4959217;28;20074;-69
2023/03/03 10:21:53;;;;;;;7.85;3.03;;;4.30;99.90;;;;;;4955421;28;21019;-67
2023/03/03 10:24:23;;;;;;;10.48;3.08;;;4.30;99.90;;;;;;4959147;28;20133;-69
2023/03/03 10:27:23;;;;;;;24.05;2.97;;;4.30;99.90;;;;;;4959061;28;20065;-68
2023/03/03 10:30:10;;;;;;;22.75;2.63;;;4.20;99.90;;;;;;4957958;28;20384;-67
2023/03/03 10:33:16;;;;;;;9.57;4.68;;;4.20;99.90;;;;;;4938317;28;20076;-70
2023/03/03 10:36:05;;;;;;;10.50;2.00;;;4.20;99.90;;;;;;4951425;28;20382;-68
2023/03/03 10:38:42;;;;;;;23.10;2.45;;;4.30;99.90;;;;;;4959932;28;20053;-67
2023/03/03 10:41:15;;;;;;;17.75;5.50;;;4.40;99.90;;;;;;4958620;28;20059;-68
2023/03/03 10:43:50;;;;;;;12.45;3.13;;;4.40;99.90;;;;;;4958551;28;20412;-66
2023/03/03 10:46:43;;;;;;;23.27;2.90;;;4.40;99.90;;;;;;4959207;28;20047;-69
2023/03/03 10:49:25;;;;;;;5.43;1.65;;;4.40;99.90;;;;;;4961422;28;20146;-67
2023/03/03 10:52:10;;;;;;;15.18;2.40;;;4.40;99.90;;;;;;4960325;28;20155;-67
2023/03/03 10:54:54;;;;;;;12.40;5.38;;;4.40;99.90;;;;;;4963088;28;20484;-66
2023/03/03 10:57:51;;;;;;;5.13;3.00;;;4.30;99.90;;;;;;4962552;28;20050;-67
2023/03/03 11:00:29;;;;;;;16.10;3.63;;;4.30;99.90;;;;;;4962320;28;20057;-66
2023/03/03 11:03:08;;;;;;;17.58;2.88;;;4.50;99.90;;;;;;4963100;28;20057;-70
2023/03/03 11:05:41;;;;;;;19.45;2.40;;;4.70;99.90;;;;;;4961526;28;20054;-68
2023/03/03 11:08:18;;;;;;;18.08;3.70;;;4.80;99.90;;;;;;4962376;28;20053;-69
2023/03/03 11:11:09;;;;;;;15.88;3.30;;;4.90;99.90;;;;;;4962853;28;20193;-66
2023/03/03 11:13:46;;;;;;;14.05;3.25;;;4.90;99.90;;;;;;4961098;28;20078;-69
2023/03/03 11:16:19;;;;;;;21.60;3.15;;;4.90;99.90;;;;;;4962760;28;20500;-69
2023/03/03 11:19:06;;;;;;;18.67;3.38;;;5.00;99.90;;;;;;4962278;28;20105;-68
2023/03/03 11:21:49;;;;;;;15.35;3.30;;;5.00;99.90;;;;;;4961995;28;20133;-67
2023/03/03 11:24:41;;;;;;;13.13;2.53;;;5.00;99.90;;;;;;4961318;28;20048;-66
2023/03/03 11:27:20;;;;;;;12.30;3.25;;;4.90;99.90;;;;;;4954812;28;20061;-67
2023/03/03 11:30:15;;;;;;;9.57;2.30;;;4.90;99.90;;;;;;4960457;28;20464;-68
2023/03/03 11:32:52;;;;;;;30.20;4.40;;;4.90;99.90;;;;;;4961657;28;20058;-67
2023/03/03 11:35:32;;;;;;;14.90;2.75;;;4.90;99.90;;;;;;4961671;28;20058;-67
2023/03/03 11:38:11;;;;;;;14.73;2.60;;;5.00;99.90;;;;;;4960363;28;20100;-70
2023/03/03 11:40:46;;;;;;;21.15;3.17;;;5.00;99.90;;;;;;4962198;28;20054;-68
2023/03/03 11:43:21;;;;;;;11.02;2.95;;;5.00;99.90;;;;;;4961511;28;20055;-68
2023/03/03 11:46:21;;;;;;;12.38;3.22;;;5.00;99.90;;;;;;4960056;28;20615;-67
2023/03/03 11:49:18;;;;;;;29.58;3.50;;;5.10;99.90;;;;;;4962697;28;20715;-67
2023/03/03 11:51:52;;;;;;;20.08;4.20;;;5.00;99.90;;;;;;4937451;28;20046;-68
2023/03/03 11:54:25;;;;;;;11.27;2.67;;;5.00;99.90;;;;;;4962283;28;20051;-66
2023/03/03 11:57:15;;;;;;;8.88;3.22;;;5.00;99.90;;;;;;4962119;28;20133;-68
2023/03/03 12:00:17;;;;;;;11.82;2.17;;;4.90;99.90;;;;;;4959733;28;20142;-68
2023/03/03 12:03:00;;;;;;;11.05;2.47;;;4.90;99.90;;;;;;4962078;28;20164;-68
2023/03/03 12:05:39;;;;;;;16.30;3.90;;;4.90;99.90;;;;;;4961443;28;20050;-67
2023/03/03 12:08:25;;;;;;;19.27;3.25;;;4.90;99.90;;;;;;4959012;28;20113;-70
2023/03/03 12:11:01;;;;;;;14.48;2.95;;;4.90;99.90;;;;;;4959763;28;20109;-67
2023/03/03 12:13:44;;;;;;;10.13;2.45;;;4.90;99.90;;;;;;4961395;28;20078;-67
2023/03/03 12:16:17;;;;;;;18.17;2.85;;;4.80;99.90;;;;;;4959128;28;20054;-68
2023/03/03 12:18:58;;;;;;;15.57;3.40;;;4.90;99.90;;;;;;4959126;28;20423;-67
2023/03/03 12:21:49;;;;;;;7.47;1.65;;;4.70;99.90;;;;;;4961340;28;20050;-68
2023/03/03 12:24:31;;;;;;;10.75;2.25;;;4.70;99.90;;;;;;4959221;28;20078;-66
2023/03/03 12:27:28;;;;;;;12.75;2.10;;;4.60;99.90;;;;;;4960237;28;20049;-67
2023/03/03 12:30:01;;;;;;;15.90;2.95;;;4.60;99.90;;;;;;4958405;28;20050;-67
2023/03/03 12:32:50;;;;;;;18.45;2.33;;;4.50;99.90;;;;;;4959654;28;20050;-67
2023/03/03 12:35:35;;;;;;;22.63;4.00;;;4.50;99.90;;;;;;4960949;28;20492;-65
2023/03/03 12:38:20;;;;;;;12.38;2.35;;;4.50;99.90;;;;;;4957703;28;20050;-66
2023/03/03 12:41:02;;;;;;;12.75;2.40;;;4.40;99.90;;;;;;4960030;28;20153;-66
2023/03/03 12:44:03;;;;;;;14.35;3.05;;;4.50;99.90;;;;;;4961573;28;20046;-72
2023/03/03 12:46:45;;;;;;;17.05;4.82;;;4.40;99.90;;;;;;4955428;28;20133;-66
2023/03/03 12:49:12;;;;;;;14.38;3.28;;;4.40;99.90;;;;;;4961122;28;20143;-65
2023/03/03 12:51:50;;;;;;;31.23;3.80;;;4.40;99.90;;;;;;4955674;28;20492;-67
2023/03/03 12:54:23;;;;;;;14.05;2.33;;;4.40;99.90;;;;;;4959583;28;20065;-66
2023/03/03 12:56:54;;;;;;;10.80;3.28;;;4.40;99.90;;;;;;4958596;28;20205;-65
2023/03/03 12:59:39;;;;;;;16.02;2.78;;;4.50;99.90;;;;;;4959712;28;20055;-65
2023/03/03 13:02:09;;;;;;;14.02;2.92;;;4.50;99.90;;;;;;4959060;28;21073;-65
2023/03/03 13:04:46;;;;;;;13.50;3.80;;;4.50;99.90;;;;;;4960916;28;20086;-66
2023/03/03 13:07:22;;;;;;;12.07;2.38;;;4.50;99.90;;;;;;4990202;28;20289;-66
2023/03/03 13:10:13;;;;;;;10.75;2.55;;;4.50;99.90;;;;;;4958375;28;20405;-68
2023/03/03 13:13:01;;;;;;;14.35;3.95;;;4.60;99.90;;;;;;4960382;28;20122;-64
2023/03/03 13:15:43;;;;;;;23.73;4.07;;;4.60;99.90;;;;;;4960397;28;20047;-67
2023/03/03 13:18:29;;;;;;;4.05;1.90;;;4.70;99.90;;;;;;4957547;28;20051;-66
2023/03/03 13:21:09;;;;;;;11.65;2.60;;;4.90;99.90;;;;;;4960049;28;20053;-68
2023/03/03 13:23:52;;;;;;;12.15;1.80;;;5.00;99.90;;;;;;4958907;28;20173;-64
2023/03/03 13:27:02;;;;;;;7.90;1.35;;;5.00;99.90;;;;;;4959887;28;20054;-65
2023/03/03 13:29:36;;;;;;;14.50;2.55;;;5.10;99.90;;;;;;4951525;28;20074;-65